Joy — V2EI9 — position and weather

sailwx.info

Track history (hours):
 
Tides and Currents Weather Stations Pressure Air Temp Water Temp Dewpoint Dewpoint Depression Visibility Wind Speed Wind Dir Waves Ship Positions

Joy

Last reported at 2016-Feb-06 02:29 UTC. Time now 2016-Feb-10 04:46 UTC.
Position N 37°03' E 004°34'.

Length 105 m; draft 6.3 m.

Type: Cargo ship. MMSI: 305444000.

Date/timePositionNaut miles runAvg speedWind from/ knotsBaromVisibWave heightAir tempDewpointWater temp
2016-Feb-06 02:29N 37°03' E 004°34'9 9.3
2016-Feb-06 01:33N 37°02' E 004°23'10 9.1
2016-Feb-06 00:30N 37°01' E 004°11'168 8.7
2016-Feb-05 05:05N 36°39' E 000°42'288 8.9
2016-Feb-03 20:33N 36°06' W 005°13'8 7.2
2016-Feb-03 19:27N 36°09' W 005°22'0 0.1
2016-Feb-03 18:33N 36°09' W 005°22'0 0.0
2016-Feb-03 17:33N 36°09' W 005°22'3 3.0
2016-Feb-03 16:33N 36°06' W 005°22'1110.8
2016-Feb-03 15:33N 35°57' W 005°30'  
Track history (hours):
 
Tides and Currents Weather Stations Pressure Air Temp Water Temp Dewpoint Dewpoint Depression Visibility Wind Speed Wind Dir Waves Ship Positions

Joy

Last reported at 2016-Feb-06 02:29 UTC. Time now 2016-Feb-10 04:46 UTC.
Position N 37°03' E 004°34'.

Length 105 m; draft 6.3 m.

Type: Cargo ship. MMSI: 305444000.

Date/timePositionNaut miles runAvg speedWind from/ knotsBaromVisibWave heightAir tempDewpointWater temp
2016-Feb-06 02:29N 37°03' E 004°34'9 9.3
2016-Feb-06 01:33N 37°02' E 004°23'10 9.1
2016-Feb-06 00:30N 37°01' E 004°11'168 8.7
2016-Feb-05 05:05N 36°39' E 000°42'288 8.9
2016-Feb-03 20:33N 36°06' W 005°13'8 7.2
2016-Feb-03 19:27N 36°09' W 005°22'0 0.1
2016-Feb-03 18:33N 36°09' W 005°22'0 0.0
2016-Feb-03 17:33N 36°09' W 005°22'3 3.0
2016-Feb-03 16:33N 36°06' W 005°22'1110.8
2016-Feb-03 15:33N 35°57' W 005°30'  

Dump ship's entire track history